createdAt,value
2019-03-05T00:00:28.026Z,69.72
2019-03-05T00:00:59.236Z,69.69
2019-03-05T00:01:30.411Z,69.73
2019-03-05T00:02:01.657Z,69.74
2019-03-05T00:02:32.816Z,69.81
2019-03-05T00:03:03.999Z,69.72
2019-03-05T00:03:35.154Z,69.75
2019-03-05T00:04:06.321Z,69.78
2019-03-05T00:04:37.509Z,69.87
2019-03-05T00:05:08.671Z,70.00
2019-03-05T00:05:39.855Z,70.03
2019-03-05T00:06:11.068Z,70.06
2019-03-05T00:06:42.280Z,70.12
2019-03-05T00:07:13.984Z,70.15
2019-03-05T00:07:45.142Z,70.27
2019-03-05T00:08:16.317Z,70.23
2019-03-05T00:08:47.479Z,70.12
2019-03-05T00:09:18.804Z,70.02
2019-03-05T00:09:49.960Z,70.02
2019-03-05T00:10:21.123Z,69.97
2019-03-05T00:10:52.299Z,69.87
2019-03-05T00:11:23.460Z,69.80
2019-03-05T00:11:54.751Z,69.73
2019-03-05T00:12:25.917Z,69.76
2019-03-05T00:12:57.093Z,69.79
2019-03-05T00:13:28.268Z,69.96
2019-03-05T00:13:59.473Z,69.95
2019-03-05T00:14:30.675Z,69.98
2019-03-05T00:15:01.864Z,70.06
2019-03-05T00:15:33.055Z,70.16
2019-03-05T00:16:04.217Z,70.20
2019-03-05T00:16:35.382Z,70.16
2019-03-05T00:17:06.586Z,70.09
2019-03-05T00:17:37.746Z,70.03
2019-03-05T00:18:08.910Z,70.03
2019-03-05T00:18:40.073Z,70.02
2019-03-05T00:19:11.309Z,69.99
2019-03-05T00:19:42.576Z,70.17
2019-03-05T00:20:13.752Z,70.19
2019-03-05T00:20:44.921Z,70.18
2019-03-05T00:21:16.099Z,70.26
2019-03-05T00:21:47.285Z,70.32
2019-03-05T00:22:18.483Z,70.37
2019-03-05T00:22:49.653Z,70.47
2019-03-05T00:23:20.850Z,70.53
2019-03-05T00:23:52.031Z,70.67
2019-03-05T00:24:23.221Z,70.70
2019-03-05T00:24:54.402Z,70.72
2019-03-05T00:25:25.613Z,70.85
2019-03-05T00:25:56.780Z,70.87
2019-03-05T00:26:28.000Z,70.87
2019-03-05T00:26:59.226Z,70.97
2019-03-05T00:27:30.449Z,71.13
2019-03-05T00:28:01.660Z,71.08
2019-03-05T00:28:32.860Z,71.11
2019-03-05T00:29:04.072Z,71.16
2019-03-05T00:29:35.284Z,71.13
2019-03-05T00:30:06.526Z,71.06
2019-03-05T00:30:37.734Z,71.01
2019-03-05T00:31:08.917Z,71.03
2019-03-05T00:31:40.112Z,70.93
2019-03-05T00:32:11.316Z,70.96
2019-03-05T00:32:42.534Z,71.04
2019-03-05T00:33:13.779Z,71.10
2019-03-05T00:33:45.007Z,71.12
2019-03-05T00:34:16.242Z,71.24
2019-03-05T00:34:47.456Z,71.30
2019-03-05T00:35:18.663Z,71.30
2019-03-05T00:35:49.883Z,71.26
2019-03-05T00:36:21.076Z,71.22
2019-03-05T00:36:52.275Z,71.22
2019-03-05T00:37:23.489Z,71.22
2019-03-05T00:37:54.707Z,71.21
2019-03-05T00:38:25.927Z,71.28
2019-03-05T00:38:57.092Z,71.31
2019-03-05T00:39:28.257Z,71.36
2019-03-05T00:39:59.419Z,71.39
2019-03-05T00:40:30.592Z,71.37
2019-03-05T00:41:01.741Z,71.40
2019-03-05T00:41:32.949Z,71.35
2019-03-05T00:42:04.106Z,71.30
2019-03-05T00:42:35.336Z,71.30
2019-03-05T00:43:06.501Z,71.30
2019-03-05T00:43:37.665Z,71.38
2019-03-05T00:44:08.900Z,71.44
2019-03-05T00:44:40.144Z,71.44
2019-03-05T00:45:11.387Z,71.41
2019-03-05T00:45:42.622Z,71.31
2019-03-05T00:46:13.912Z,71.23
2019-03-05T00:46:45.134Z,71.24
2019-03-05T00:47:16.368Z,71.27
2019-03-05T00:47:47.619Z,71.28
2019-03-05T00:48:18.864Z,71.26
2019-03-05T00:48:50.136Z,71.28
2019-03-05T00:49:21.394Z,71.35
2019-03-05T00:49:52.621Z,71.42
2019-03-05T00:50:23.869Z,71.44
2019-03-05T00:50:55.113Z,71.39
2019-03-05T00:51:26.361Z,71.32
2019-03-05T00:51:57.591Z,71.39
2019-03-05T00:52:28.819Z,71.41
2019-03-05T00:53:00.069Z,71.48
2019-03-05T00:53:31.310Z,71.54
2019-03-05T00:54:02.556Z,71.50
2019-03-05T00:54:33.740Z,71.45
2019-03-05T00:55:04.961Z,71.50
2019-03-05T00:55:36.225Z,71.52
2019-03-05T00:56:07.441Z,71.51
2019-03-05T00:56:38.662Z,71.50
2019-03-05T00:57:09.890Z,71.55
2019-03-05T00:57:41.151Z,71.62
2019-03-05T00:58:12.381Z,71.70
2019-03-05T00:58:43.642Z,71.74
2019-03-05T00:59:14.885Z,71.83
2019-03-05T00:59:46.103Z,71.89
2019-03-05T01:00:17.391Z,71.93
2019-03-05T01:00:48.654Z,71.96
2019-03-05T01:01:19.877Z,71.97
2019-03-05T01:01:51.102Z,72.03
2019-03-05T01:02:22.332Z,72.02
2019-03-05T01:02:53.602Z,71.99
2019-03-05T01:03:24.798Z,72.02
2019-03-05T01:03:56.014Z,72.07
2019-03-05T01:04:27.246Z,72.04
2019-03-05T01:04:58.519Z,71.94
2019-03-05T01:05:29.712Z,71.85
2019-03-05T01:06:00.937Z,71.83
2019-03-05T01:06:32.203Z,71.81
2019-03-05T01:07:03.445Z,71.79
2019-03-05T01:07:34.660Z,71.77
2019-03-05T01:08:08.343Z,71.85
2019-03-05T01:08:39.511Z,71.97
2019-03-05T01:09:10.772Z,72.14
2019-03-05T01:09:41.928Z,72.21
2019-03-05T01:10:13.109Z,72.33
2019-03-05T01:10:44.269Z,72.50
2019-03-05T01:11:15.500Z,72.69
2019-03-05T01:11:46.673Z,72.86
2019-03-05T01:12:17.831Z,73.06
2019-03-05T01:12:49.049Z,73.18
2019-03-05T01:13:20.271Z,73.38
2019-03-05T01:13:51.492Z,73.55
2019-03-05T01:14:22.696Z,73.83
2019-03-05T01:14:53.909Z,74.03
2019-03-05T01:15:25.119Z,74.17
2019-03-05T01:15:56.325Z,74.17
2019-03-05T01:16:27.556Z,74.17
2019-03-05T01:16:58.761Z,74.20
2019-03-05T01:17:29.965Z,74.20
2019-03-05T01:18:01.199Z,74.21
2019-03-05T01:18:32.403Z,74.19
2019-03-05T01:19:03.669Z,74.26
2019-03-05T01:19:34.875Z,74.37
2019-03-05T01:20:06.109Z,74.46
2019-03-05T01:20:37.329Z,74.58
2019-03-05T01:21:08.600Z,74.56
2019-03-05T01:21:39.792Z,74.60
2019-03-05T01:22:10.999Z,74.63
2019-03-05T01:22:42.239Z,74.65
2019-03-05T01:23:13.480Z,74.64
2019-03-05T01:23:44.672Z,74.71
2019-03-05T01:24:15.877Z,74.77
2019-03-05T01:24:47.084Z,74.86
2019-03-05T01:25:18.287Z,74.83
2019-03-05T01:25:49.536Z,74.84
2019-03-05T01:26:20.760Z,74.81
2019-03-05T01:26:51.972Z,74.78
2019-03-05T01:27:23.183Z,74.70
2019-03-05T01:27:54.394Z,74.75
2019-03-05T01:28:25.590Z,74.74
2019-03-05T01:28:56.870Z,74.78
2019-03-05T01:29:28.078Z,74.80
2019-03-05T01:29:59.295Z,74.87
2019-03-05T01:30:31.640Z,74.92
2019-03-05T01:31:02.866Z,74.92
2019-03-05T01:31:34.077Z,74.84
2019-03-05T01:32:05.296Z,74.75
2019-03-05T01:32:36.500Z,74.68
2019-03-05T01:33:07.740Z,74.57
2019-03-05T01:33:38.952Z,74.49
2019-03-05T01:34:10.218Z,74.55
2019-03-05T01:34:41.398Z,74.57
2019-03-05T01:35:12.602Z,74.56
2019-03-05T01:35:43.807Z,74.45
2019-03-05T01:36:15.010Z,74.43
2019-03-05T01:36:46.226Z,74.46
2019-03-05T01:37:17.448Z,74.41
2019-03-05T01:37:48.673Z,74.31
2019-03-05T01:38:19.958Z,74.24
2019-03-05T01:38:51.168Z,74.18
2019-03-05T01:39:22.371Z,74.06
2019-03-05T01:39:53.572Z,73.90
2019-03-05T01:40:24.794Z,73.76
2019-03-05T01:40:56.014Z,73.69
2019-03-05T01:41:27.225Z,73.76
2019-03-05T01:41:58.491Z,73.91
2019-03-05T01:42:29.699Z,73.97
2019-03-05T01:43:00.904Z,74.07
2019-03-05T01:43:32.123Z,74.07
2019-03-05T01:44:03.338Z,73.98
2019-03-05T01:44:34.551Z,73.94
2019-03-05T01:45:05.766Z,73.91
2019-03-05T01:45:36.975Z,73.97
2019-03-05T01:46:08.187Z,74.26
2019-03-05T01:46:39.486Z,74.24
2019-03-05T01:47:10.751Z,74.28
2019-03-05T01:47:41.971Z,74.19
2019-03-05T01:48:13.210Z,74.19
2019-03-05T01:48:44.420Z,74.19
2019-03-05T01:49:15.633Z,74.14
2019-03-05T01:49:46.846Z,74.06
2019-03-05T01:50:18.044Z,74.03
2019-03-05T01:50:49.257Z,73.92
2019-03-05T01:51:20.478Z,73.80
2019-03-05T01:51:51.666Z,73.62
2019-03-05T01:52:22.918Z,73.79
2019-03-05T01:52:54.129Z,73.93
2019-03-05T01:53:25.333Z,73.89
2019-03-05T01:53:56.567Z,73.85
2019-03-05T01:54:27.772Z,73.71
2019-03-05T01:54:58.978Z,73.48
2019-03-05T01:55:30.225Z,73.39
2019-03-05T01:56:01.432Z,73.33
2019-03-05T01:56:32.636Z,73.32
2019-03-05T01:57:03.846Z,73.30
2019-03-05T01:57:35.047Z,73.25
2019-03-05T01:58:06.258Z,73.10
2019-03-05T01:58:37.448Z,73.09
2019-03-05T01:59:08.683Z,73.32
2019-03-05T01:59:39.872Z,73.46
2019-03-05T02:00:11.946Z,73.46
2019-03-05T02:00:43.324Z,73.37
2019-03-05T02:01:14.606Z,73.41
2019-03-05T02:01:45.813Z,73.48
2019-03-05T02:02:17.025Z,73.45
2019-03-05T02:02:48.225Z,73.40
2019-03-05T02:03:19.444Z,73.33
2019-03-05T02:03:50.712Z,73.32
2019-03-05T02:04:21.910Z,73.26
2019-03-05T02:04:53.130Z,73.22
2019-03-05T02:05:24.372Z,73.18
2019-03-05T02:05:55.584Z,73.10
2019-03-05T02:06:26.795Z,72.98
2019-03-05T02:06:58.044Z,72.90
2019-03-05T02:07:29.284Z,72.91
2019-03-05T02:08:00.509Z,73.00
2019-03-05T02:08:31.719Z,73.14
2019-03-05T02:09:02.907Z,73.27
2019-03-05T02:09:34.193Z,73.40
2019-03-05T02:10:05.402Z,73.53
2019-03-05T02:10:36.608Z,73.76
2019-03-05T02:11:07.833Z,73.83
2019-03-05T02:11:39.040Z,74.09
2019-03-05T02:12:10.245Z,74.24
2019-03-05T02:12:41.460Z,74.38
2019-03-05T02:13:12.673Z,74.45
2019-03-05T02:13:43.950Z,74.53
2019-03-05T02:14:15.195Z,74.48
2019-03-05T02:14:46.412Z,74.55
2019-03-05T02:15:17.620Z,74.38
2019-03-05T02:15:48.820Z,74.29
2019-03-05T02:16:20.023Z,74.28
2019-03-05T02:16:51.233Z,74.13
2019-03-05T02:17:22.427Z,74.01
2019-03-05T02:17:53.635Z,73.99
2019-03-05T02:18:24.842Z,73.94
2019-03-05T02:18:56.148Z,73.98
2019-03-05T02:19:27.410Z,74.01
2019-03-05T02:19:58.626Z,73.97
2019-03-05T02:20:29.844Z,73.92
2019-03-05T02:21:01.057Z,73.95
2019-03-05T02:21:32.318Z,73.91
2019-03-05T02:22:03.529Z,73.87
2019-03-05T02:22:34.739Z,73.86
2019-03-05T02:23:05.926Z,73.87
2019-03-05T02:23:37.140Z,74.06
2019-03-05T02:24:08.371Z,74.27
2019-03-05T02:24:39.566Z,74.35
2019-03-05T02:25:10.788Z,74.41
2019-03-05T02:25:41.987Z,74.57
2019-03-05T02:26:13.187Z,74.73
2019-03-05T02:26:44.414Z,74.80
2019-03-05T02:27:15.594Z,74.81
2019-03-05T02:27:46.818Z,74.93
2019-03-05T02:28:18.022Z,75.04
2019-03-05T02:28:49.214Z,75.10
2019-03-05T02:29:20.517Z,75.14
2019-03-05T02:29:51.734Z,75.12
2019-03-05T02:30:22.942Z,75.09
2019-03-05T02:30:54.264Z,75.10
2019-03-05T02:31:25.469Z,75.10
2019-03-05T02:31:56.713Z,75.14
2019-03-05T02:32:27.916Z,75.16
2019-03-05T02:32:59.128Z,75.27
2019-03-05T02:33:30.343Z,75.44
2019-03-05T02:34:01.579Z,75.46
2019-03-05T02:34:32.822Z,75.49
2019-03-05T02:35:04.046Z,75.58
2019-03-05T02:35:35.226Z,75.52
2019-03-05T02:36:06.473Z,75.22
2019-03-05T02:36:38.747Z,74.96
2019-03-05T02:37:09.948Z,74.74
2019-03-05T02:37:41.143Z,74.59
2019-03-05T02:38:12.347Z,74.54
2019-03-05T02:38:43.561Z,74.44
2019-03-05T02:39:14.787Z,74.45
2019-03-05T02:39:45.995Z,74.42
2019-03-05T02:40:17.191Z,74.44
2019-03-05T02:40:48.429Z,74.48
2019-03-05T02:41:21.463Z,74.49
2019-03-05T02:41:52.678Z,74.57
2019-03-05T02:42:23.884Z,74.75
2019-03-05T02:42:55.097Z,74.90
2019-03-05T02:43:26.306Z,75.03
2019-03-05T02:43:57.552Z,75.33
2019-03-05T02:44:28.766Z,75.48
2019-03-05T02:44:59.975Z,75.51
2019-03-05T02:45:31.709Z,75.39
2019-03-05T02:46:03.059Z,75.21
2019-03-05T02:46:34.307Z,75.12
2019-03-05T02:47:05.521Z,75.11
2019-03-05T02:47:36.740Z,75.13
2019-03-05T02:48:07.950Z,75.15
2019-03-05T02:48:39.162Z,75.19
2019-03-05T02:49:10.417Z,75.31
2019-03-05T02:49:41.634Z,75.37
2019-03-05T02:50:12.844Z,75.40
2019-03-05T02:50:44.059Z,75.35
2019-03-05T02:51:15.270Z,75.22
2019-03-05T02:51:46.523Z,75.19
2019-03-05T02:52:17.805Z,75.18
2019-03-05T02:52:49.012Z,75.18
2019-03-05T02:53:20.218Z,75.15
2019-03-05T02:53:51.430Z,75.11
2019-03-05T02:54:22.639Z,75.10
2019-03-05T02:54:53.839Z,75.01
2019-03-05T02:55:25.067Z,75.00
2019-03-05T02:55:57.311Z,74.96
2019-03-05T02:56:28.486Z,74.92
2019-03-05T02:56:59.713Z,74.99
2019-03-05T02:57:30.963Z,74.99
2019-03-05T02:58:02.175Z,74.96
2019-03-05T02:58:33.406Z,74.93
2019-03-05T02:59:04.614Z,74.94
2019-03-05T02:59:35.830Z,74.92
2019-03-05T03:00:07.051Z,74.99
2019-03-05T03:00:38.259Z,75.12
2019-03-05T03:01:09.520Z,75.12
2019-03-05T03:01:40.729Z,75.13
2019-03-05T03:02:11.955Z,75.14
2019-03-05T03:02:43.134Z,75.15
2019-03-05T03:03:14.350Z,75.11
2019-03-05T03:03:45.579Z,75.16
2019-03-05T03:04:16.782Z,75.30
2019-03-05T03:04:48.001Z,75.44
2019-03-05T03:05:19.215Z,75.45
2019-03-05T03:05:50.426Z,75.44
2019-03-05T03:06:21.688Z,75.38
2019-03-05T03:06:52.901Z,75.33
2019-03-05T03:07:24.132Z,75.31
2019-03-05T03:07:55.313Z,75.26
2019-03-05T03:08:26.525Z,75.24
2019-03-05T03:08:57.737Z,75.22
2019-03-05T03:09:28.955Z,75.14
2019-03-05T03:10:00.199Z,75.10
2019-03-05T03:10:31.542Z,75.03
2019-03-05T03:11:02.752Z,75.09
2019-03-05T03:11:34.011Z,75.11
2019-03-05T03:12:05.229Z,75.12
2019-03-05T03:12:36.416Z,75.09
2019-03-05T03:13:07.648Z,75.03
2019-03-05T03:13:38.848Z,74.99
2019-03-05T03:14:10.052Z,74.96
2019-03-05T03:14:41.268Z,75.38
2019-03-05T03:15:12.491Z,75.34
2019-03-05T03:15:43.745Z,75.17
2019-03-05T03:16:14.968Z,75.01
2019-03-05T03:16:46.176Z,74.89
2019-03-05T03:17:17.393Z,74.84
2019-03-05T03:17:48.610Z,74.93
2019-03-05T03:18:19.813Z,75.05
2019-03-05T03:18:51.088Z,75.18
2019-03-05T03:19:22.297Z,75.21
2019-03-05T03:19:53.505Z,75.25
2019-03-05T03:20:24.729Z,75.31
2019-03-05T03:20:55.960Z,75.34
2019-03-05T03:21:27.218Z,75.41
2019-03-05T03:21:58.440Z,75.49
2019-03-05T03:22:29.667Z,75.60
2019-03-05T03:23:00.864Z,75.52
2019-03-05T03:23:32.078Z,75.49
2019-03-05T03:24:03.283Z,75.63
2019-03-05T03:24:34.505Z,75.63
2019-03-05T03:25:05.723Z,75.61
2019-03-05T03:25:36.956Z,75.64
2019-03-05T03:26:08.161Z,75.71
2019-03-05T03:26:39.401Z,75.76
2019-03-05T03:27:10.665Z,75.82
2019-03-05T03:27:41.880Z,75.90
2019-03-05T03:28:13.102Z,75.94
2019-03-05T03:28:44.344Z,76.05
2019-03-05T03:29:15.544Z,76.09
2019-03-05T03:29:46.776Z,76.32
2019-03-05T03:30:18.010Z,76.78
2019-03-05T03:30:49.200Z,76.85
2019-03-05T03:31:20.416Z,76.67
2019-03-05T03:31:51.632Z,76.43
2019-03-05T03:32:22.835Z,76.06
2019-03-05T03:32:54.050Z,75.71
2019-03-05T03:33:25.348Z,75.58
2019-03-05T03:33:56.552Z,75.53
2019-03-05T03:34:27.810Z,75.50
2019-03-05T03:34:59.261Z,75.36
2019-03-05T03:35:30.539Z,75.37
2019-03-05T03:36:01.757Z,75.38
2019-03-05T03:36:33.087Z,75.36
2019-03-05T03:37:04.311Z,75.44
2019-03-05T03:37:35.545Z,75.50
2019-03-05T03:38:06.751Z,75.43
2019-03-05T03:38:37.973Z,75.44
2019-03-05T03:39:09.332Z,75.48
2019-03-05T03:39:40.545Z,75.57
2019-03-05T03:40:11.731Z,75.69
2019-03-05T03:40:42.937Z,75.70
2019-03-05T03:41:14.153Z,75.62
2019-03-05T03:41:45.395Z,75.62
2019-03-05T03:42:16.671Z,75.58
2019-03-05T03:42:47.897Z,75.67
2019-03-05T03:43:19.097Z,75.86
2019-03-05T03:43:50.293Z,75.96
2019-03-05T03:44:21.504Z,75.99
2019-03-05T03:44:52.716Z,75.96
2019-03-05T03:45:23.918Z,75.90
2019-03-05T03:45:55.153Z,75.90
2019-03-05T03:46:26.403Z,75.82
2019-03-05T03:46:57.611Z,75.88
2019-03-05T03:47:28.832Z,75.90
2019-03-05T03:48:00.034Z,75.95
2019-03-05T03:48:31.281Z,76.00
2019-03-05T03:49:02.482Z,75.96
2019-03-05T03:49:33.712Z,75.98
2019-03-05T03:50:04.906Z,76.01
2019-03-05T03:50:36.169Z,76.19
2019-03-05T03:51:07.376Z,76.29
2019-03-05T03:51:38.592Z,76.26
2019-03-05T03:52:09.809Z,76.19
2019-03-05T03:52:41.021Z,76.11
2019-03-05T03:53:12.280Z,75.92
2019-03-05T03:53:43.479Z,75.86
2019-03-05T03:54:14.709Z,75.83
2019-03-05T03:54:45.908Z,75.79
2019-03-05T03:55:17.119Z,75.70
2019-03-05T03:55:48.324Z,75.68
2019-03-05T03:56:19.533Z,75.65
2019-03-05T03:56:50.765Z,75.55
2019-03-05T03:57:21.950Z,75.46
2019-03-05T03:57:53.161Z,75.42
2019-03-05T03:58:24.396Z,75.48
2019-03-05T03:58:55.629Z,75.76
2019-03-05T03:59:26.819Z,76.18
2019-03-05T03:59:58.018Z,76.64
2019-03-05T04:00:29.267Z,76.64
2019-03-05T04:01:00.478Z,76.57
2019-03-05T04:01:31.684Z,76.56
2019-03-05T04:02:02.909Z,76.61
2019-03-05T04:02:34.125Z,76.56
2019-03-05T04:03:05.336Z,76.49
2019-03-05T04:03:36.537Z,76.48
2019-03-05T04:04:07.772Z,76.42
2019-03-05T04:04:38.986Z,76.43
2019-03-05T04:05:10.224Z,76.36
2019-03-05T04:05:41.402Z,76.34
2019-03-05T04:06:12.604Z,76.27
2019-03-05T04:06:43.810Z,76.37
2019-03-05T04:07:15.033Z,76.45
2019-03-05T04:07:46.255Z,76.62
2019-03-05T04:08:17.473Z,76.87
2019-03-05T04:08:48.739Z,76.98
2019-03-05T04:09:19.953Z,77.13
2019-03-05T04:09:51.333Z,77.21
2019-03-05T04:10:22.556Z,77.32
2019-03-05T04:10:53.762Z,77.50
2019-03-05T04:11:24.972Z,77.59
2019-03-05T04:11:58.620Z,77.60
2019-03-05T04:12:29.847Z,78.09
2019-03-05T04:13:01.062Z,78.76
2019-03-05T04:13:32.299Z,79.50
2019-03-05T04:14:03.517Z,79.92
2019-03-05T04:14:34.708Z,81.09
2019-03-05T04:15:05.925Z,81.10
2019-03-05T04:15:37.118Z,80.66
2019-03-05T04:16:08.320Z,80.30
2019-03-05T04:16:39.530Z,79.76
2019-03-05T04:17:10.762Z,79.09
2019-03-05T04:17:41.977Z,78.84
2019-03-05T04:18:13.230Z,78.83
2019-03-05T04:18:44.507Z,78.72
2019-03-05T04:19:15.700Z,78.66
2019-03-05T04:19:46.919Z,78.58
2019-03-05T04:20:18.123Z,78.41
2019-03-05T04:20:49.309Z,78.31
2019-03-05T04:21:20.519Z,78.37
2019-03-05T04:21:51.811Z,78.68
2019-03-05T04:22:23.031Z,78.61
2019-03-05T04:22:54.288Z,78.61
2019-03-05T04:23:25.507Z,78.63
2019-03-05T04:23:56.780Z,78.61
2019-03-05T04:24:27.992Z,78.64
2019-03-05T04:24:59.193Z,78.64
2019-03-05T04:25:30.400Z,78.60
2019-03-05T04:26:01.647Z,78.57
2019-03-05T04:26:32.906Z,78.55
2019-03-05T04:27:04.119Z,78.57
2019-03-05T04:27:35.326Z,78.59
2019-03-05T04:28:06.538Z,78.62
2019-03-05T04:28:37.745Z,78.66
2019-03-05T04:29:09.101Z,78.74
2019-03-05T04:29:40.311Z,78.78
2019-03-05T04:30:11.522Z,78.88
2019-03-05T04:30:42.723Z,78.94
2019-03-05T04:31:13.956Z,79.11
2019-03-05T04:31:45.200Z,79.08
2019-03-05T04:32:16.400Z,79.52
2019-03-05T04:32:47.619Z,79.19
2019-03-05T04:33:18.828Z,78.49
2019-03-05T04:33:50.038Z,78.02
2019-03-05T04:34:21.251Z,78.02
2019-03-05T04:34:52.479Z,78.36
2019-03-05T04:35:23.732Z,79.21
2019-03-05T04:35:54.931Z,79.48
2019-03-05T04:36:26.186Z,79.26
2019-03-05T04:36:57.409Z,79.14
2019-03-05T04:37:28.634Z,79.02
2019-03-05T04:37:59.836Z,78.88
2019-03-05T04:38:31.079Z,78.77
2019-03-05T04:39:02.284Z,78.65
2019-03-05T04:39:33.506Z,78.67
2019-03-05T04:40:04.762Z,78.62
2019-03-05T04:40:35.978Z,78.60
2019-03-05T04:41:07.191Z,78.54
2019-03-05T04:41:38.416Z,78.42
2019-03-05T04:42:09.636Z,78.32
2019-03-05T04:42:40.887Z,78.32
2019-03-05T04:43:12.088Z,78.45
2019-03-05T04:43:43.302Z,78.51
2019-03-05T04:44:14.533Z,78.54
2019-03-05T04:44:45.735Z,78.57
2019-03-05T04:45:16.952Z,78.57
2019-03-05T04:45:48.187Z,78.62
2019-03-05T04:46:19.421Z,78.65
2019-03-05T04:46:50.674Z,78.62
2019-03-05T04:47:21.874Z,78.55
2019-03-05T04:47:53.083Z,78.45
2019-03-05T04:48:24.386Z,78.37
2019-03-05T04:48:55.609Z,78.56
2019-03-05T04:49:26.826Z,79.01
2019-03-05T04:49:58.021Z,79.14
2019-03-05T04:50:29.231Z,79.26
2019-03-05T04:51:00.448Z,79.10
2019-03-05T04:51:31.654Z,78.96
2019-03-05T04:52:02.905Z,78.65
2019-03-05T04:52:34.115Z,78.46
2019-03-05T04:53:05.340Z,78.30
2019-03-05T04:53:36.531Z,78.21
2019-03-05T04:54:07.765Z,78.19
2019-03-05T04:54:38.971Z,78.16
2019-03-05T04:55:10.187Z,78.17
2019-03-05T04:55:41.394Z,78.28
2019-03-05T04:56:12.610Z,78.26
2019-03-05T04:56:43.859Z,78.13
2019-03-05T04:57:15.188Z,77.98
2019-03-05T04:57:46.385Z,77.79
2019-03-05T04:58:17.597Z,77.73
2019-03-05T04:58:48.822Z,77.65
2019-03-05T04:59:20.029Z,77.63
2019-03-05T04:59:51.233Z,77.61
2019-03-05T05:00:22.456Z,77.55
2019-03-05T05:00:53.694Z,77.45
2019-03-05T05:01:24.920Z,77.43
2019-03-05T05:01:56.165Z,77.46
2019-03-05T05:02:27.458Z,77.67
2019-03-05T05:02:58.683Z,77.73
2019-03-05T05:03:29.891Z,77.65
2019-03-05T05:04:01.113Z,77.52
2019-03-05T05:04:32.380Z,77.19
2019-03-05T05:05:03.606Z,76.97
2019-03-05T05:05:34.819Z,76.42
2019-03-05T05:06:06.092Z,76.16
2019-03-05T05:06:37.301Z,75.55
2019-03-05T05:07:08.580Z,75.15
2019-03-05T05:07:40.109Z,74.77
2019-03-05T05:08:11.318Z,74.60
2019-03-05T05:08:42.685Z,74.35
2019-03-05T05:09:13.923Z,74.14
2019-03-05T05:09:45.177Z,74.11
2019-03-05T05:10:16.399Z,73.92
2019-03-05T05:10:47.622Z,73.58
2019-03-05T05:11:18.860Z,72.88
2019-03-05T05:11:50.113Z,72.49
2019-03-05T05:12:21.335Z,72.05
2019-03-05T05:12:52.547Z,71.43
2019-03-05T05:13:23.759Z,70.93
2019-03-05T05:13:54.980Z,70.59
2019-03-05T05:14:26.206Z,70.47
2019-03-05T05:14:57.422Z,70.39
2019-03-05T05:15:28.641Z,69.99
2019-03-05T05:15:59.835Z,69.58
2019-03-05T05:16:31.025Z,69.25
2019-03-05T05:17:02.254Z,69.37
2019-03-05T05:17:33.502Z,69.69
2019-03-05T05:18:04.702Z,70.04
2019-03-05T05:18:35.955Z,70.17
2019-03-05T05:19:07.171Z,70.15
2019-03-05T05:19:38.413Z,70.00
2019-03-05T05:20:09.650Z,69.95
2019-03-05T05:20:40.846Z,69.77
2019-03-05T05:21:12.054Z,69.67
2019-03-05T05:21:43.251Z,69.31
2019-03-05T05:22:14.477Z,69.22
2019-03-05T05:22:45.684Z,69.53
2019-03-05T05:23:16.896Z,70.05
2019-03-05T05:23:48.154Z,70.22
2019-03-05T05:24:19.381Z,70.33
2019-03-05T05:24:50.646Z,71.04
2019-03-05T05:25:21.852Z,70.98
2019-03-05T05:25:53.072Z,70.02
2019-03-05T05:26:24.249Z,68.71
2019-03-05T05:26:55.504Z,67.43
2019-03-05T05:27:26.700Z,66.94
2019-03-05T05:27:57.916Z,67.15
2019-03-05T05:28:29.154Z,67.12
2019-03-05T05:29:00.401Z,67.89
2019-03-05T05:29:31.602Z,68.40
2019-03-05T05:30:02.826Z,68.56
2019-03-05T05:30:34.052Z,68.53
2019-03-05T05:31:05.303Z,68.46
2019-03-05T05:31:36.513Z,68.48
2019-03-05T05:32:07.734Z,68.42
2019-03-05T05:32:38.958Z,68.19
2019-03-05T05:33:10.170Z,68.11
2019-03-05T05:33:41.371Z,68.12
2019-03-05T05:34:12.584Z,68.18
2019-03-05T05:34:43.791Z,68.15
2019-03-05T05:35:15.078Z,68.29
2019-03-05T05:35:46.293Z,68.67
2019-03-05T05:36:17.495Z,68.72
2019-03-05T05:36:48.713Z,68.81
2019-03-05T05:37:21.818Z,68.72
2019-03-05T05:37:52.998Z,68.54
2019-03-05T05:38:24.220Z,68.33
2019-03-05T05:38:55.440Z,68.02
2019-03-05T05:39:26.660Z,67.86
2019-03-05T05:39:57.868Z,67.68
2019-03-05T05:40:29.114Z,67.51
2019-03-05T05:41:00.317Z,67.06
2019-03-05T05:41:31.562Z,67.11
2019-03-05T05:42:02.805Z,67.19
2019-03-05T05:42:34.057Z,67.18
2019-03-05T05:43:05.311Z,67.01
2019-03-05T05:43:36.519Z,66.83
2019-03-05T05:44:07.717Z,66.38
2019-03-05T05:44:38.966Z,66.16
2019-03-05T05:45:10.177Z,66.20
2019-03-05T05:45:41.388Z,66.09
2019-03-05T05:46:12.612Z,65.80
2019-03-05T05:46:43.875Z,65.59
2019-03-05T05:47:15.071Z,65.52
2019-03-05T05:47:46.264Z,65.37
2019-03-05T05:48:17.502Z,65.26
2019-03-05T05:48:48.749Z,65.24
2019-03-05T05:49:19.977Z,65.49
2019-03-05T05:49:51.198Z,65.53
2019-03-05T05:50:22.404Z,65.62
2019-03-05T05:50:53.609Z,65.67
2019-03-05T05:51:24.862Z,65.64
2019-03-05T05:51:56.078Z,65.69
2019-03-05T05:52:27.287Z,66.00
2019-03-05T05:52:58.481Z,66.68
2019-03-05T05:53:29.692Z,66.60
2019-03-05T05:54:00.892Z,65.80
2019-03-05T05:54:32.096Z,66.06
2019-03-05T05:55:03.404Z,65.82
2019-03-05T05:55:34.587Z,65.31
2019-03-05T05:56:05.838Z,65.13
2019-03-05T05:56:37.035Z,65.03
2019-03-05T05:57:08.261Z,65.05
2019-03-05T05:57:39.470Z,65.37
2019-03-05T05:58:10.686Z,65.31
2019-03-05T05:58:41.896Z,65.29
2019-03-05T05:59:13.140Z,65.82
2019-03-05T05:59:44.379Z,65.74
2019-03-05T06:00:15.637Z,65.64
2019-03-05T06:00:46.833Z,65.75
2019-03-05T06:01:18.045Z,64.89
2019-03-05T06:01:49.293Z,64.88
2019-03-05T06:02:20.546Z,65.02
2019-03-05T06:02:51.767Z,65.03
2019-03-05T06:03:23.005Z,64.78
2019-03-05T06:03:54.241Z,64.63
2019-03-05T06:04:25.469Z,64.63
2019-03-05T06:04:56.707Z,64.57
2019-03-05T06:05:27.912Z,64.88
2019-03-05T06:05:59.155Z,65.37
2019-03-05T06:06:30.373Z,65.15
2019-03-05T06:07:01.575Z,64.96
2019-03-05T06:07:32.776Z,64.90
2019-03-05T06:08:03.994Z,65.13
2019-03-05T06:08:35.283Z,65.03
2019-03-05T06:09:06.496Z,64.98
2019-03-05T06:09:37.767Z,65.07
2019-03-05T06:10:08.957Z,65.02
2019-03-05T06:10:40.169Z,64.85
2019-03-05T06:11:11.436Z,64.86
2019-03-05T06:11:42.630Z,64.81
2019-03-05T06:12:13.867Z,64.79
2019-03-05T06:12:45.108Z,64.57
2019-03-05T06:13:16.327Z,64.47
2019-03-05T06:13:47.528Z,64.47
2019-03-05T06:14:18.747Z,64.76
2019-03-05T06:14:49.968Z,64.98
2019-03-05T06:15:21.193Z,65.12
2019-03-05T06:15:52.403Z,65.43
2019-03-05T06:16:23.645Z,65.06
2019-03-05T06:16:54.884Z,64.70
2019-03-05T06:17:26.095Z,64.59
2019-03-05T06:17:57.304Z,64.53
2019-03-05T06:18:28.522Z,64.49
2019-03-05T06:18:59.725Z,64.43
2019-03-05T06:19:30.947Z,64.35
2019-03-05T06:20:02.201Z,64.22
2019-03-05T06:20:33.397Z,64.00
2019-03-05T06:21:04.634Z,63.83
2019-03-05T06:21:35.925Z,63.75
2019-03-05T06:22:07.139Z,63.73
2019-03-05T06:22:38.347Z,63.59
2019-03-05T06:23:09.551Z,63.63
2019-03-05T06:23:40.753Z,63.54
2019-03-05T06:24:11.943Z,63.26
2019-03-05T06:24:43.155Z,62.94
2019-03-05T06:25:14.361Z,62.79
2019-03-05T06:25:45.605Z,62.78
2019-03-05T06:26:16.812Z,62.70
2019-03-05T06:26:48.022Z,62.62
2019-03-05T06:27:19.314Z,62.39
2019-03-05T06:27:50.532Z,62.26
2019-03-05T06:28:21.741Z,62.11
2019-03-05T06:28:52.929Z,61.75
2019-03-05T06:29:24.139Z,61.66
2019-03-05T06:29:55.431Z,61.55
2019-03-05T06:30:26.674Z,61.24
2019-03-05T06:30:57.909Z,60.79
2019-03-05T06:31:29.074Z,60.41
2019-03-05T06:32:00.380Z,60.22
2019-03-05T06:32:31.682Z,60.00
2019-03-05T06:33:02.889Z,60.05
2019-03-05T06:33:34.112Z,59.87
2019-03-05T06:34:07.183Z,59.18
2019-03-05T06:34:38.402Z,58.89
2019-03-05T06:35:09.614Z,58.85
2019-03-05T06:35:40.814Z,58.51
2019-03-05T06:36:12.047Z,58.29
2019-03-05T06:36:43.253Z,57.62
2019-03-05T06:37:14.536Z,57.00
2019-03-05T06:37:45.751Z,56.50
2019-03-05T06:38:16.966Z,56.02
2019-03-05T06:38:48.171Z,55.72
2019-03-05T06:39:19.376Z,55.30
2019-03-05T06:39:50.581Z,55.03
2019-03-05T06:40:21.801Z,54.84
2019-03-05T06:40:52.997Z,54.77
2019-03-05T06:41:24.215Z,54.86
2019-03-05T06:41:55.497Z,54.65
2019-03-05T06:42:26.770Z,54.37